Time;durP1;ratioP1;P1;durP2;ratioP2;P2;SDS_P1;SDS_P2;PMS_P1;PMS_P2;Temp;Humidity;BMP_temperature;BMP_pressure;BME280_temperature;BME280_humidity;BME280_pressure;Samples;Min_cycle;Max_cycle;Signal;HPM_P1;HPM_P2
2021/03/03 00:02:03;;;;;;;16.85;6.45;;;1.50;30.70;;;;;;4862052;29;20105;-89
2021/03/03 00:07:52;;;;;;;15.25;5.78;;;1.40;30.80;;;;;;4862260;29;20052;-90
2021/03/03 00:17:35;;;;;;;13.25;5.68;;;1.20;30.80;;;;;;4861968;29;20088;-90
2021/03/03 00:23:24;;;;;;;14.68;7.13;;;1.20;31.00;;;;;;4862027;29;20493;-90
2021/03/03 00:29:13;;;;;;;13.10;5.93;;;1.10;31.10;;;;;;4862083;29;20041;-91
2021/03/03 00:35:02;;;;;;;12.93;5.68;;;1.10;31.20;;;;;;4865879;29;20053;-90
2021/03/03 00:40:50;;;;;;;15.38;6.57;;;1.00;31.20;;;;;;4864924;29;20507;-86
2021/03/03 00:46:39;;;;;;;14.90;6.00;;;0.90;31.20;;;;;;4866917;29;20097;-89
2021/03/03 00:52:27;;;;;;;16.35;5.97;;;0.80;31.30;;;;;;4865336;29;20551;-89
2021/03/03 00:58:16;;;;;;;12.70;5.45;;;0.70;31.20;;;;;;4864950;29;20089;-90
2021/03/03 01:04:04;;;;;;;14.02;5.85;;;0.60;31.30;;;;;;4865392;29;20107;-90
2021/03/03 01:09:53;;;;;;;11.60;4.72;;;0.60;31.50;;;;;;4872109;29;20113;-89
2021/03/03 01:19:36;;;;;;;13.30;5.75;;;0.50;31.60;;;;;;4864892;29;20048;-89
2021/03/03 01:25:26;;;;;;;15.00;5.90;;;0.40;31.60;;;;;;4864359;29;20040;-89
2021/03/03 01:31:15;;;;;;;12.10;5.10;;;0.40;31.70;;;;;;4864284;29;20115;-89
2021/03/03 01:37:05;;;;;;;12.98;6.18;;;0.40;31.80;;;;;;4864115;29;20052;-89
2021/03/03 01:42:55;;;;;;;15.55;6.32;;;0.30;31.80;;;;;;4863782;29;20028;-88
2021/03/03 01:48:43;;;;;;;14.13;6.55;;;0.20;31.80;;;;;;4863937;29;20039;-89
2021/03/03 01:54:31;;;;;;;11.82;4.93;;;0.10;31.90;;;;;;4863846;29;20413;-88
2021/03/03 02:00:21;;;;;;;12.23;5.30;;;0.00;31.90;;;;;;4863707;29;20040;-87
2021/03/03 02:06:36;;;;;;;11.07;5.03;;;0.00;32.00;;;;;;4863652;29;20464;-89
2021/03/03 02:12:36;;;;;;;14.02;4.95;;;-0.10;32.00;;;;;;4863491;29;20043;-89
2021/03/03 02:22:43;;;;;;;13.10;5.43;;;-0.20;32.10;;;;;;4863576;29;20048;-88
2021/03/03 02:28:32;;;;;;;15.05;5.13;;;-0.20;32.10;;;;;;4863011;29;20622;-88
2021/03/03 02:34:25;;;;;;;14.23;5.45;;;-0.30;32.20;;;;;;4863123;29;20569;-88
2021/03/03 02:40:16;;;;;;;15.05;5.38;;;-0.30;32.20;;;;;;4862915;29;20064;-88
2021/03/03 02:46:06;;;;;;;11.40;4.88;;;-0.40;32.30;;;;;;4863084;29;20044;-89
2021/03/03 02:51:54;;;;;;;14.43;6.43;;;-0.40;32.40;;;;;;4862934;29;20442;-90
2021/03/03 02:57:44;;;;;;;12.15;5.53;;;-0.50;32.40;;;;;;4862834;29;20447;-90
2021/03/03 03:03:53;;;;;;;11.70;5.38;;;-0.50;32.50;;;;;;4863056;29;20037;-90
2021/03/03 03:09:45;;;;;;;14.98;5.32;;;-0.60;32.50;;;;;;4862988;29;20044;-87
2021/03/03 03:15:35;;;;;;;13.70;5.40;;;-0.60;32.70;;;;;;4862175;29;20041;-88
2021/03/03 03:25:24;;;;;;;11.70;4.70;;;-0.60;32.70;;;;;;4864089;29;20060;-88
2021/03/03 03:31:13;;;;;;;13.45;6.30;;;-0.60;32.90;;;;;;4862844;29;20514;-88
2021/03/03 03:37:02;;;;;;;12.70;5.10;;;-0.60;32.90;;;;;;4868223;29;20681;-89
2021/03/03 03:42:54;;;;;;;13.23;5.63;;;-0.70;33.00;;;;;;4862340;29;20547;-90
2021/03/03 03:48:43;;;;;;;12.10;5.20;;;-0.70;33.00;;;;;;4863223;29;20072;-89
2021/03/03 03:54:32;;;;;;;11.50;4.47;;;-0.70;33.10;;;;;;4862144;29;20505;-89
2021/03/03 04:00:22;;;;;;;12.13;5.45;;;-0.70;33.20;;;;;;4861992;29;20134;-89
2021/03/03 04:06:10;;;;;;;11.48;5.30;;;-0.80;33.10;;;;;;4862803;29;20225;-89
2021/03/03 04:12:00;;;;;;;12.32;4.97;;;-0.80;33.20;;;;;;4868184;29;20386;-89
2021/03/03 04:17:48;;;;;;;13.10;5.32;;;-0.80;33.30;;;;;;4868416;29;20124;-88
2021/03/03 04:27:32;;;;;;;12.75;5.85;;;-0.90;33.30;;;;;;4867918;29;20051;-88
2021/03/03 04:33:21;;;;;;;10.57;5.30;;;-0.90;33.50;;;;;;4867785;29;20274;-86
2021/03/03 04:39:09;;;;;;;11.48;5.43;;;-1.00;33.50;;;;;;4867430;29;20497;-87
2021/03/03 04:44:58;;;;;;;17.48;5.53;;;-1.00;33.60;;;;;;4867440;29;20076;-85
2021/03/03 04:50:46;;;;;;;16.90;6.38;;;-1.00;33.60;;;;;;4867575;29;20033;-86
2021/03/03 04:56:34;;;;;;;12.20;5.47;;;-1.00;33.80;;;;;;4867626;29;20040;-87
2021/03/03 05:02:24;;;;;;;10.98;5.00;;;-0.90;33.90;;;;;;4867326;29;20102;-88
2021/03/03 05:08:12;;;;;;;13.02;5.13;;;-0.90;33.90;;;;;;4867535;29;20039;-86
2021/03/03 05:14:01;;;;;;;16.30;5.45;;;-0.90;34.00;;;;;;4867377;29;20048;-86
2021/03/03 05:19:49;;;;;;;13.90;5.75;;;-0.90;34.00;;;;;;4863505;29;20098;-86
2021/03/03 05:29:32;;;;;;;9.48;4.90;;;-0.90;34.10;;;;;;4864252;29;20048;-86
2021/03/03 05:35:20;;;;;;;10.15;5.22;;;-0.80;34.20;;;;;;4863892;29;20047;-86
2021/03/03 05:41:10;;;;;;;14.18;5.50;;;-0.80;34.40;;;;;;4863909;29;20443;-86
2021/03/03 05:47:01;;;;;;;15.73;6.20;;;-0.80;34.40;;;;;;4863938;29;20049;-86
2021/03/03 05:52:51;;;;;;;13.50;6.63;;;-0.70;34.50;;;;;;4863754;29;20493;-87
2021/03/03 05:58:41;;;;;;;14.63;6.15;;;-0.60;34.70;;;;;;4863929;29;20037;-87
2021/03/03 06:04:32;;;;;;;12.27;5.43;;;-0.60;34.70;;;;;;4865966;29;20053;-87
2021/03/03 06:10:21;;;;;;;13.35;5.85;;;-0.50;34.90;;;;;;4863612;29;20047;-87
2021/03/03 06:16:11;;;;;;;15.93;6.03;;;-0.40;35.00;;;;;;4864580;29;20501;-88
2021/03/03 06:22:27;;;;;;;16.58;6.70;;;-0.30;35.20;;;;;;4863149;29;20161;-84
2021/03/03 06:32:17;;;;;;;15.38;6.78;;;0.00;35.50;;;;;;4863980;29;20128;-91
2021/03/03 06:38:08;;;;;;;15.25;6.15;;;0.30;35.80;;;;;;4863982;29;20032;-91
2021/03/03 06:43:58;;;;;;;17.65;7.05;;;0.60;35.90;;;;;;4862426;29;20195;-82
2021/03/03 06:49:48;;;;;;;16.00;6.60;;;0.80;35.90;;;;;;4862435;29;20029;-83
2021/03/03 06:55:48;;;;;;;16.42;7.25;;;0.90;36.00;;;;;;4862713;29;20044;-83
2021/03/03 07:01:37;;;;;;;15.70;6.60;;;1.10;36.20;;;;;;4862296;29;20403;-83
2021/03/03 07:07:26;;;;;;;15.98;7.38;;;1.30;36.40;;;;;;4881066;29;20052;-86
2021/03/03 07:13:16;;;;;;;15.95;7.32;;;1.50;36.60;;;;;;4880740;29;20052;-85
2021/03/03 07:19:18;;;;;;;18.40;8.52;;;1.80;36.80;;;;;;4880742;29;20048;-85
2021/03/03 07:25:12;;;;;;;19.88;8.20;;;2.10;36.90;;;;;;4880729;29;20068;-85
2021/03/03 07:35:04;;;;;;;17.02;8.15;;;2.50;37.20;;;;;;4880826;29;20051;-87
2021/03/03 07:40:52;;;;;;;21.75;9.32;;;2.80;37.50;;;;;;4880380;29;20043;-86
2021/03/03 07:46:41;;;;;;;18.40;8.05;;;3.00;37.60;;;;;;4880779;29;20089;-85
2021/03/03 07:52:36;;;;;;;18.38;8.30;;;3.30;37.80;;;;;;4880737;29;20051;-87
2021/03/03 07:58:27;;;;;;;19.05;7.97;;;3.70;38.10;;;;;;4880083;29;20048;-87
2021/03/03 08:04:36;;;;;;;20.25;8.48;;;4.10;38.30;;;;;;4880248;29;20140;-86
2021/03/03 08:10:24;;;;;;;19.10;10.05;;;4.40;38.40;;;;;;4880000;29;20043;-87
2021/03/03 08:16:13;;;;;;;23.33;10.30;;;4.80;38.80;;;;;;4880085;29;20116;-85
2021/03/03 08:22:01;;;;;;;19.52;9.07;;;5.10;38.80;;;;;;4880046;29;20040;-87
2021/03/03 08:27:51;;;;;;;18.95;9.50;;;5.40;39.00;;;;;;4880292;29;20047;-86
2021/03/03 08:37:41;;;;;;;19.23;9.15;;;6.10;39.30;;;;;;4880709;29;20052;-86
2021/03/03 08:43:37;;;;;;;20.52;10.23;;;6.50;39.60;;;;;;4879795;29;20056;-86
2021/03/03 08:49:27;;;;;;;20.98;10.57;;;6.70;39.70;;;;;;4879894;29;20081;-88
2021/03/03 08:55:32;;;;;;;20.90;9.13;;;7.10;40.10;;;;;;4882791;29;20493;-85
2021/03/03 09:02:01;;;;;;;20.55;9.77;;;7.50;40.10;;;;;;4883000;29;20084;-86
2021/03/03 09:07:50;;;;;;;19.48;9.75;;;7.80;40.20;;;;;;4883117;29;20564;-86
2021/03/03 09:13:38;;;;;;;20.58;9.00;;;8.10;40.30;;;;;;4882669;29;20036;-86
2021/03/03 09:19:29;;;;;;;22.13;9.00;;;8.40;40.40;;;;;;4882607;29;20049;-86
2021/03/03 09:25:20;;;;;;;21.70;9.07;;;8.70;40.70;;;;;;4882719;29;20105;-86
2021/03/03 09:31:09;;;;;;;19.48;9.18;;;9.10;40.90;;;;;;4882801;29;20432;-87
2021/03/03 09:33:35;;;;;;;17.20;8.82;;;9.20;40.60;;;;;;4865372;29;20081;-86
2021/03/03 09:39:25;;;;;;;22.05;9.07;;;9.50;41.00;;;;;;4882349;29;20084;-87
2021/03/03 09:45:21;;;;;;;19.95;9.68;;;9.90;41.20;;;;;;4882529;29;20109;-88
2021/03/03 09:51:09;;;;;;;20.02;9.77;;;10.20;41.50;;;;;;4882713;29;20092;-87
2021/03/03 09:57:13;;;;;;;18.75;9.52;;;10.50;41.30;;;;;;4882282;29;20040;-86
2021/03/03 10:03:05;;;;;;;18.58;9.60;;;10.70;41.50;;;;;;4882058;29;20168;-86
2021/03/03 10:08:53;;;;;;;19.08;9.68;;;11.10;41.70;;;;;;4882271;29;20512;-86
2021/03/03 10:15:01;;;;;;;17.95;8.95;;;11.30;41.90;;;;;;4881660;29;20085;-85
2021/03/03 10:20:54;;;;;;;18.15;9.88;;;11.60;42.00;;;;;;4881791;29;20044;-86
2021/03/03 10:26:51;;;;;;;17.73;10.15;;;12.10;42.10;;;;;;4881672;29;20048;-85
2021/03/03 10:32:42;;;;;;;16.42;9.55;;;12.20;42.00;;;;;;4881089;29;20040;-86
2021/03/03 10:38:30;;;;;;;17.63;9.57;;;12.30;41.90;;;;;;4881279;29;20433;-89
2021/03/03 10:44:36;;;;;;;18.92;8.65;;;12.60;42.40;;;;;;4881419;29;20076;-88
2021/03/03 10:50:25;;;;;;;15.50;9.25;;;12.90;42.00;;;;;;4881371;29;20065;-88
2021/03/03 10:56:33;;;;;;;17.40;9.48;;;13.00;42.20;;;;;;4881499;29;20025;-87
2021/03/03 11:02:22;;;;;;;18.08;9.85;;;13.30;42.40;;;;;;4883103;29;20116;-86
2021/03/03 11:08:11;;;;;;;16.65;8.88;;;13.60;42.50;;;;;;4881050;29;20059;-88
2021/03/03 11:14:00;;;;;;;19.58;9.88;;;13.80;42.40;;;;;;4880916;29;20490;-86
2021/03/03 11:19:49;;;;;;;19.17;9.82;;;14.20;43.20;;;;;;4880815;29;20040;-86
2021/03/03 11:25:37;;;;;;;17.45;9.43;;;14.50;42.80;;;;;;4881066;29;20125;-87
2021/03/03 11:31:25;;;;;;;17.52;9.88;;;14.50;42.40;;;;;;4881786;29;20033;-87
2021/03/03 11:37:15;;;;;;;17.48;10.55;;;14.60;42.80;;;;;;4881008;29;20044;-86
2021/03/03 11:43:04;;;;;;;19.85;10.00;;;14.80;42.90;;;;;;4881632;29;20063;-87
2021/03/03 11:48:52;;;;;;;20.13;10.93;;;14.80;42.60;;;;;;4880272;29;20557;-86
2021/03/03 11:54:41;;;;;;;18.90;10.35;;;14.90;42.50;;;;;;4880251;29;20101;-87
2021/03/03 12:00:29;;;;;;;18.88;9.77;;;14.90;42.60;;;;;;4880282;29;20039;-87
2021/03/03 12:06:19;;;;;;;17.15;8.88;;;15.00;42.80;;;;;;4880265;29;20056;-89
2021/03/03 12:12:08;;;;;;;16.17;9.25;;;15.20;42.90;;;;;;4880220;29;20064;-88
2021/03/03 12:17:57;;;;;;;17.30;9.35;;;15.30;43.10;;;;;;4879996;29;20075;-89
2021/03/03 12:23:45;;;;;;;15.18;7.22;;;15.40;42.70;;;;;;4879891;29;20232;-87
2021/03/03 12:29:34;;;;;;;19.60;8.88;;;15.50;43.20;;;;;;4883575;29;20040;-88
2021/03/03 12:38:58;;;;;;;20.67;9.57;;;15.90;43.30;;;;;;4883400;29;20040;-87
2021/03/03 12:44:47;;;;;;;17.88;9.73;;;16.30;43.40;;;;;;4883883;29;20084;-88
2021/03/03 12:50:36;;;;;;;19.73;11.25;;;16.10;42.60;;;;;;4883090;29;20081;-86
2021/03/03 12:56:24;;;;;;;19.90;10.80;;;16.30;43.40;;;;;;4882938;29;20044;-88
2021/03/03 13:02:13;;;;;;;17.65;9.82;;;16.50;43.30;;;;;;4882974;29;20037;-87
2021/03/03 13:08:02;;;;;;;16.67;9.25;;;16.70;43.60;;;;;;4882866;29;20109;-87
2021/03/03 13:13:52;;;;;;;17.63;10.00;;;17.00;43.20;;;;;;4882937;29;20056;-88
2021/03/03 13:19:40;;;;;;;16.20;10.15;;;17.10;43.10;;;;;;4883153;29;20397;-89
2021/03/03 13:25:29;;;;;;;18.13;9.85;;;17.20;43.20;;;;;;4882970;29;20097;-86
2021/03/03 13:31:17;;;;;;;16.40;8.73;;;17.30;43.30;;;;;;4889122;29;20084;-86
2021/03/03 13:40:54;;;;;;;15.23;9.23;;;17.60;43.40;;;;;;4882014;29;20093;-86
2021/03/03 13:46:42;;;;;;;17.42;9.77;;;17.80;43.00;;;;;;4882673;29;20446;-87
2021/03/03 13:52:31;;;;;;;15.75;9.40;;;17.80;42.50;;;;;;4882412;29;20083;-89
2021/03/03 13:58:20;;;;;;;17.17;9.63;;;17.60;42.70;;;;;;4882260;29;20085;-87
2021/03/03 14:04:08;;;;;;;18.58;9.70;;;17.70;42.70;;;;;;4881874;29;20072;-87
2021/03/03 14:09:56;;;;;;;19.85;9.70;;;17.60;42.60;;;;;;4881976;29;20036;-86
2021/03/03 14:15:45;;;;;;;18.67;9.73;;;17.70;42.60;;;;;;4881994;29;20093;-89
2021/03/03 14:21:33;;;;;;;17.50;9.20;;;17.70;42.80;;;;;;4882102;29;20060;-89
2021/03/03 14:27:23;;;;;;;18.30;9.32;;;17.70;42.70;;;;;;4881405;29;20071;-87
2021/03/03 14:33:11;;;;;;;18.17;9.40;;;17.60;42.30;;;;;;4881645;29;20036;-88
2021/03/03 14:42:35;;;;;;;18.38;9.85;;;17.30;42.30;;;;;;4882776;29;20585;-91
2021/03/03 14:48:24;;;;;;;16.17;5.60;;;17.20;42.40;;;;;;4881476;29;20096;-92
2021/03/03 14:54:13;;;;;;;17.10;8.93;;;17.00;41.90;;;;;;4881165;29;20032;-90
2021/03/03 15:00:05;;;;;;;16.35;9.85;;;16.60;42.00;;;;;;4881274;29;20036;-88
2021/03/03 15:05:53;;;;;;;18.83;10.75;;;16.60;42.30;;;;;;4880765;29;20164;-87
2021/03/03 15:11:42;;;;;;;18.25;10.00;;;16.50;42.20;;;;;;4880726;29;20454;-88
2021/03/03 15:17:31;;;;;;;20.48;9.85;;;16.40;42.30;;;;;;4880801;29;20084;-88
2021/03/03 15:23:20;;;;;;;19.27;11.18;;;16.20;42.30;;;;;;4880803;29;20055;-88
2021/03/03 15:29:09;;;;;;;19.30;11.18;;;16.20;42.30;;;;;;4881181;29;20073;-86
2021/03/03 15:34:57;;;;;;;24.23;13.40;;;16.00;42.40;;;;;;4881734;29;20568;-90
2021/03/03 15:40:52;;;;;;;18.63;11.40;;;15.90;42.00;;;;;;4878717;29;20432;-87
2021/03/03 15:46:41;;;;;;;20.38;10.73;;;15.70;42.30;;;;;;4880429;29;20080;-89
2021/03/03 15:52:29;;;;;;;20.23;10.23;;;15.60;42.20;;;;;;4880322;29;20040;-85
2021/03/03 15:58:18;;;;;;;23.70;10.98;;;15.40;42.20;;;;;;4884586;29;20052;-86
2021/03/03 16:04:07;;;;;;;25.35;11.75;;;15.10;42.10;;;;;;4880676;29;20067;-94
2021/03/03 16:09:56;;;;;;;24.98;12.15;;;14.90;42.00;;;;;;4880573;29;20481;-90
2021/03/03 16:15:44;;;;;;;25.63;11.85;;;14.50;42.10;;;;;;4880097;29;20054;-90
2021/03/03 16:21:32;;;;;;;23.02;12.68;;;14.30;42.00;;;;;;4880807;29;20036;-92
2021/03/03 16:27:21;;;;;;;23.23;12.98;;;14.10;42.30;;;;;;4880538;29;20406;-91
2021/03/03 16:33:09;;;;;;;24.73;13.68;;;13.90;42.20;;;;;;4880239;29;20112;-89
2021/03/03 16:38:59;;;;;;;24.63;14.45;;;13.60;42.00;;;;;;4879808;29;20393;-88
2021/03/03 16:44:47;;;;;;;24.23;13.30;;;13.30;42.10;;;;;;4879683;29;20067;-88
2021/03/03 16:50:37;;;;;;;25.42;15.38;;;13.10;42.20;;;;;;4880592;29;20077;-88
2021/03/03 16:56:25;;;;;;;21.83;11.45;;;12.70;42.00;;;;;;4880122;29;20085;-91
2021/03/03 17:02:14;;;;;;;21.70;12.20;;;12.50;42.20;;;;;;4880308;29;20389;-90
2021/03/03 17:08:03;;;;;;;23.17;12.63;;;12.20;42.20;;;;;;4879674;29;20072;-87
2021/03/03 17:13:51;;;;;;;21.27;11.40;;;11.90;42.40;;;;;;4879334;29;20573;-86
2021/03/03 17:19:40;;;;;;;22.92;12.23;;;11.70;42.40;;;;;;4882986;29;20423;-85
2021/03/03 17:25:28;;;;;;;25.17;13.07;;;11.50;42.50;;;;;;4882836;29;20055;-85
2021/03/03 17:31:18;;;;;;;23.08;11.57;;;11.30;42.60;;;;;;4882726;29;20044;-85
2021/03/03 17:37:07;;;;;;;27.63;13.98;;;11.10;42.60;;;;;;4882612;29;20027;-85
2021/03/03 17:46:49;;;;;;;29.73;15.05;;;10.80;42.80;;;;;;4882539;29;20044;-86
2021/03/03 17:52:40;;;;;;;28.58;14.82;;;10.60;43.00;;;;;;4882534;29;20032;-88
2021/03/03 17:58:28;;;;;;;30.88;14.90;;;10.50;43.00;;;;;;4884961;29;20039;-92
2021/03/03 18:04:16;;;;;;;29.17;13.90;;;10.40;43.00;;;;;;4888211;29;20136;-93
2021/03/03 18:10:07;;;;;;;26.42;13.68;;;10.10;43.00;;;;;;4887958;29;20128;-91
2021/03/03 18:15:55;;;;;;;28.77;14.40;;;9.90;43.00;;;;;;4886741;29;20124;-91
2021/03/03 18:21:44;;;;;;;27.60;14.15;;;9.80;43.20;;;;;;4890740;29;20036;-93
2021/03/03 18:27:36;;;;;;;26.08;14.52;;;9.60;43.30;;;;;;4895821;29;20044;-94
2021/03/03 18:33:24;;;;;;;27.88;13.98;;;9.50;43.40;;;;;;4882208;29;20401;-89
2021/03/03 18:39:12;;;;;;;30.58;14.73;;;9.30;43.60;;;;;;4882033;29;20634;-88
2021/03/03 18:48:56;;;;;;;27.80;13.15;;;9.10;43.70;;;;;;4881817;29;20044;-89
2021/03/03 18:54:44;;;;;;;26.08;13.32;;;9.00;43.80;;;;;;4881462;29;20516;-88
2021/03/03 19:00:32;;;;;;;26.05;13.45;;;8.90;43.90;;;;;;4881511;29;20393;-89
2021/03/03 19:06:20;;;;;;;28.42;13.75;;;8.80;44.00;;;;;;4881679;29;20500;-90
2021/03/03 19:12:11;;;;;;;27.98;14.15;;;8.80;44.20;;;;;;4881628;29;20364;-88
2021/03/03 19:18:00;;;;;;;28.83;13.65;;;8.60;44.00;;;;;;4882111;29;20455;-89
2021/03/03 19:23:49;;;;;;;29.67;15.20;;;8.50;44.20;;;;;;4881321;29;20065;-89
2021/03/03 19:29:38;;;;;;;26.60;13.43;;;8.50;44.50;;;;;;4881920;29;20040;-90
2021/03/03 19:35:27;;;;;;;25.10;14.30;;;8.30;44.40;;;;;;4863485;29;20044;-91
2021/03/03 19:41:16;;;;;;;26.13;13.82;;;8.30;44.40;;;;;;4862873;29;20085;-89
2021/03/03 19:51:00;;;;;;;24.52;12.75;;;8.10;44.70;;;;;;4862533;29;20558;-90
2021/03/03 19:56:49;;;;;;;25.92;13.80;;;8.10;44.90;;;;;;4862386;29;20036;-89
2021/03/03 20:02:38;;;;;;;24.50;12.10;;;8.10;45.00;;;;;;4862136;29;20066;-89
2021/03/03 20:08:27;;;;;;;24.83;12.13;;;8.10;45.10;;;;;;4862048;29;20040;-89
2021/03/03 20:14:16;;;;;;;26.50;13.35;;;8.10;45.20;;;;;;4862093;29;20036;-89
2021/03/03 20:20:06;;;;;;;24.70;14.13;;;8.20;45.50;;;;;;4861963;29;20057;-89
2021/03/03 20:32:50;;;;;;;26.02;14.98;;;8.20;45.60;;;;;;4804550;29;20034;-84
2021/03/03 20:38:54;;;;;;;22.15;12.88;;;8.40;45.90;;;;;;4804639;29;20042;-87
2021/03/03 20:44:48;;;;;;;27.42;13.55;;;8.40;45.80;;;;;;4812841;29;20048;-87
2021/03/03 20:55:32;;;;;;;26.25;12.88;;;8.30;45.80;;;;;;4865833;29;20516;-87
2021/03/03 21:01:22;;;;;;;22.67;12.27;;;8.30;45.90;;;;;;4864754;29;20554;-84
2021/03/03 21:07:10;;;;;;;26.40;12.07;;;8.30;46.00;;;;;;4864580;29;20398;-87
2021/03/03 21:13:02;;;;;;;23.08;12.23;;;8.20;46.10;;;;;;4864242;29;20058;-86
2021/03/03 21:18:51;;;;;;;24.20;12.93;;;8.30;46.10;;;;;;4864171;29;20037;-86
2021/03/03 21:24:39;;;;;;;23.40;11.80;;;8.20;46.30;;;;;;4864063;29;20169;-85
2021/03/03 21:30:37;;;;;;;22.20;11.95;;;8.10;46.20;;;;;;4864182;29;20031;-86
2021/03/03 21:36:26;;;;;;;22.45;12.48;;;8.10;46.40;;;;;;4864061;29;20036;-88
2021/03/03 21:42:17;;;;;;;26.42;12.65;;;8.10;46.60;;;;;;4864189;29;20038;-88
2021/03/03 21:48:07;;;;;;;20.10;11.57;;;8.10;46.60;;;;;;4863890;29;20073;-89
2021/03/03 21:53:55;;;;;;;22.83;12.23;;;8.10;46.60;;;;;;4863610;29;20037;-87
2021/03/03 21:59:44;;;;;;;23.40;11.82;;;8.10;46.80;;;;;;4863537;29;20068;-87
2021/03/03 22:05:33;;;;;;;22.90;12.00;;;8.10;46.80;;;;;;4863598;29;20055;-87
2021/03/03 22:11:21;;;;;;;23.92;11.27;;;8.10;47.00;;;;;;4863384;29;20040;-87
2021/03/03 22:17:10;;;;;;;23.90;11.52;;;8.10;46.80;;;;;;4863531;29;20452;-87
2021/03/03 22:22:58;;;;;;;22.67;10.68;;;7.90;46.90;;;;;;4863234;29;20173;-87
2021/03/03 22:28:47;;;;;;;22.75;10.93;;;7.90;47.10;;;;;;4863060;29;20128;-87
2021/03/03 22:34:35;;;;;;;20.33;11.13;;;7.90;47.20;;;;;;4862948;29;20051;-86
2021/03/03 22:40:24;;;;;;;23.80;12.38;;;7.90;47.20;;;;;;4863114;29;20040;-87
2021/03/03 22:46:13;;;;;;;24.35;12.48;;;7.90;47.30;;;;;;4863040;29;20405;-87
2021/03/03 22:52:02;;;;;;;24.30;11.88;;;7.90;47.40;;;;;;4863023;29;20129;-87
2021/03/03 23:01:51;;;;;;;24.80;13.52;;;7.80;47.30;;;;;;4862696;29;20174;-88
2021/03/03 23:07:41;;;;;;;24.20;12.52;;;7.80;47.40;;;;;;4862660;29;20045;-89
2021/03/03 23:13:30;;;;;;;25.48;13.55;;;7.80;47.50;;;;;;4861816;29;20113;-87
2021/03/03 23:19:19;;;;;;;23.88;12.25;;;7.70;47.50;;;;;;4863142;29;20056;-86
2021/03/03 23:25:11;;;;;;;29.45;12.48;;;7.60;47.50;;;;;;4862497;29;20448;-87
2021/03/03 23:31:02;;;;;;;23.58;12.35;;;7.50;47.60;;;;;;4862358;29;20073;-88
2021/03/03 23:36:51;;;;;;;24.25;13.65;;;7.50;47.70;;;;;;4861886;29;20121;-87
2021/03/03 23:42:40;;;;;;;24.35;12.20;;;7.40;47.70;;;;;;4862090;29;20072;-87
2021/03/03 23:48:29;;;;;;;28.92;13.27;;;7.40;47.80;;;;;;4862016;29;20101;-87
2021/03/03 23:54:17;;;;;;;24.92;11.98;;;7.30;47.70;;;;;;4861750;29;20081;-87
